Voth, Texas
Current Conditions -  °F | °C
As of 2:55 AM on Sunday 23 Nov 2014 (Local Time) from KBMT Reporting Station
Moderate Rain Moderate Rain  
Wind Chill: 61°   Ceiling: 5000
Heat Index: 61°   Visibility: 3mi
Dew Point: 61°   Wind: 0mph
Humidity: 98%   Direction: NA
Pressure: 29.7"   Gusts: NA
Location:  30.17°N, 94.2°W
Report Text: KBMT 230855Z AUTO 00000KT 3SM RA BKN050 OVC065 16/16 A2970 RMK AO2 LTG DSNT NE THRU S T01620159
Loading
Personal Weather Stations






























Interactive Weather Map New forecast layout! Learn more

10-Day Weather Forecast

Advertisements
Track Severe Weather on mobile